KDAY/DAY METAR and TAF weather

Enter ICAO airport designator
Station Type Date Time Source
KDAY METAR 2019/10/16 18:56 UTC NOAA

KDAY 161856Z 30020G26KT 10SM BKN029 OVC037 10/03 A2984 RMK AO2 PK WND 28026/1848 SLP102 T01000033


Station Type Date Time Source
KDAY Decoded METAR 2019/10/16 18:56 UTC NOAA

COX DAYTON INTERNATIONAL, OH, United States (KDAY) 39-54N 084-13W 305M
Oct 16, 2019 - 02:56 PM EDT / 2019.10.16 1856 UTC
Wind: from the WNW (300 degrees) at 23 MPH (20 KT) gusting to 30 MPH (26 KT):0
Visibility: 10 mile(s):0
Sky conditions: overcast
Temperature: 50.0 F (10.0 C)
Dew Point: 37.9 F (3.3 C)
Relative Humidity: 63%
Pressure (altimeter): 29.84 in. Hg (1010 hPa)
ob: KDAY 161856Z 30020G26KT 10SM BKN029 OVC037 10/03 A2984 RMK AO2 PK WND 28026/1848 SLP102 T01000033
cycle: 19

Station Type Date Time Source
KDAY TAF 2019/10/16 18:45 UTC NOAA

TAF KDAY 161742Z 1618/1718 29015G25KT P6SM OVC025
FM162000 29019G28KT P6SM VCSH OVC028
FM162300 29017G31KT P6SM OVC035
FM170300 29013G23KT P6SM BKN035
FM171200 30011G19KT P6SM BKN025

Example: see airport list